TCA7378 TTPP-SVMG
Flight info
| Callsign | TCA7378 |
|---|---|
| Flight time | 0h 39m |
| Altitude | 24000 |
| Route | POS UP671 MEGIR UW52 ESNAP A563 MTA |
| Aircraft | C25B/M-SDE2E3FGHRWXY/LB1 |
Departure
| Time | 2026-05-09 01:14 |
|---|---|
| Airport | Piarco International Airport (TTPP) |
Arrival
| Time | 2026-05-09 01:54 |
|---|---|
| Airport | Del Caribe Santiago Mariño International Airport (SVMG) |
| Time | Latitude | Longitude | Altitude | Speed | Heading |
|---|---|---|---|---|---|
| 2026-05-09 01:11 | 10.59359 | -61.34316 | 12 ft | 0 kts | 308° |
| 2026-05-09 01:13 | 10.59381 | -61.34339 | 12 ft | 9 kts | 301° |
| 2026-05-09 01:13 | 10.59385 | -61.34405 | 12 ft | 11 kts | 269° |
| 2026-05-09 01:13 | 10.59385 | -61.34486 | 12 ft | 12 kts | 272° |
| 2026-05-09 01:13 | 10.59447 | -61.34528 | 12 ft | 13 kts | 358° |
| 2026-05-09 01:14 | 10.59529 | -61.34526 | 12 ft | 10 kts | 27° |
| 2026-05-09 01:14 | 10.59536 | -61.34513 | 12 ft | 1 kts | 91° |
| 2026-05-09 01:14 | 10.59536 | -61.34092 | 19 ft | 123 kts | 90° |
| 2026-05-09 01:14 | 10.59547 | -61.32996 | 765 ft | 178 kts | 89° |
| 2026-05-09 01:15 | 10.59556 | -61.31618 | 2101 ft | 210 kts | 90° |
| 2026-05-09 01:15 | 10.59565 | -61.30104 | 3511 ft | 219 kts | 89° |
| 2026-05-09 01:15 | 10.59493 | -61.28543 | 4662 ft | 227 kts | 101° |
| 2026-05-09 01:15 | 10.58566 | -61.27242 | 5753 ft | 239 kts | 145° |
| 2026-05-09 01:16 | 10.56944 | -61.26872 | 6878 ft | 249 kts | 184° |
| 2026-05-09 01:16 | 10.55318 | -61.27507 | 7953 ft | 257 kts | 214° |
| 2026-05-09 01:16 | 10.54165 | -61.28904 | 8963 ft | 262 kts | 238° |
| 2026-05-09 01:17 | 10.52109 | -61.32026 | 10879 ft | 270 kts | 233° |
| 2026-05-09 01:17 | 10.50950 | -61.33520 | 11773 ft | 275 kts | 232° |
| 2026-05-09 01:17 | 10.49767 | -61.35064 | 12687 ft | 279 kts | 233° |
| 2026-05-09 01:17 | 10.48591 | -61.36637 | 13606 ft | 281 kts | 234° |
| 2026-05-09 01:18 | 10.47548 | -61.38311 | 14435 ft | 282 kts | 248° |
| 2026-05-09 01:18 | 10.47000 | -61.40217 | 15315 ft | 281 kts | 260° |
| 2026-05-09 01:18 | 10.46957 | -61.42200 | 16129 ft | 282 kts | 276° |
| 2026-05-09 01:18 | 10.47164 | -61.44186 | 16949 ft | 284 kts | 276° |
| 2026-05-09 01:19 | 10.47364 | -61.46185 | 17763 ft | 285 kts | 277° |
| 2026-05-09 01:19 | 10.47583 | -61.48164 | 18530 ft | 287 kts | 276° |
| 2026-05-09 01:19 | 10.47795 | -61.50191 | 19310 ft | 289 kts | 276° |
| 2026-05-09 01:19 | 10.48009 | -61.52229 | 20062 ft | 291 kts | 275° |
| 2026-05-09 01:20 | 10.48223 | -61.54279 | 20797 ft | 293 kts | 275° |
| 2026-05-09 01:20 | 10.48441 | -61.56342 | 21509 ft | 295 kts | 275° |
| 2026-05-09 01:20 | 10.48659 | -61.58421 | 22211 ft | 297 kts | 275° |
| 2026-05-09 01:20 | 10.48876 | -61.60514 | 22887 ft | 299 kts | 274° |
| 2026-05-09 01:21 | 10.49099 | -61.62620 | 23570 ft | 300 kts | 274° |
| 2026-05-09 01:21 | 10.49319 | -61.64725 | 23942 ft | 312 kts | 273° |
| 2026-05-09 01:21 | 10.49552 | -61.66988 | 23951 ft | 331 kts | 274° |
| 2026-05-09 01:21 | 10.49803 | -61.69377 | 23958 ft | 348 kts | 274° |
| 2026-05-09 01:22 | 10.50066 | -61.71873 | 23958 ft | 362 kts | 274° |
| 2026-05-09 01:22 | 10.50340 | -61.74454 | 23972 ft | 372 kts | 274° |
| 2026-05-09 01:22 | 10.50606 | -61.77094 | 23982 ft | 381 kts | 274° |
| 2026-05-09 01:22 | 10.50894 | -61.79788 | 23980 ft | 383 kts | 274° |
| 2026-05-09 01:23 | 10.51176 | -61.82439 | 23972 ft | 372 kts | 274° |
| 2026-05-09 01:23 | 10.51434 | -61.84983 | 23971 ft | 362 kts | 274° |
| 2026-05-09 01:23 | 10.51698 | -61.87501 | 23970 ft | 355 kts | 274° |
| 2026-05-09 01:23 | 10.51954 | -61.89975 | 23968 ft | 349 kts | 274° |
| 2026-05-09 01:24 | 10.52209 | -61.92410 | 23963 ft | 344 kts | 274° |
| 2026-05-09 01:24 | 10.52456 | -61.94818 | 23958 ft | 341 kts | 274° |
| 2026-05-09 01:24 | 10.52708 | -61.97200 | 23950 ft | 337 kts | 274° |
| 2026-05-09 01:24 | 10.52948 | -61.99562 | 23954 ft | 335 kts | 273° |
| 2026-05-09 01:25 | 10.53194 | -62.01908 | 23953 ft | 333 kts | 274° |
| 2026-05-09 01:25 | 10.53434 | -62.04211 | 23957 ft | 331 kts | 274° |
| 2026-05-09 01:25 | 10.53672 | -62.06537 | 23953 ft | 331 kts | 274° |
| 2026-05-09 01:25 | 10.53918 | -62.08857 | 23948 ft | 329 kts | 274° |
| 2026-05-09 01:26 | 10.54151 | -62.11166 | 23954 ft | 329 kts | 274° |
| 2026-05-09 01:26 | 10.54388 | -62.13475 | 23958 ft | 328 kts | 274° |
| 2026-05-09 01:26 | 10.54631 | -62.15780 | 23956 ft | 328 kts | 274° |
| 2026-05-09 01:26 | 10.54864 | -62.18082 | 23949 ft | 327 kts | 274° |
| 2026-05-09 01:27 | 10.55103 | -62.20382 | 23957 ft | 327 kts | 274° |
| 2026-05-09 01:27 | 10.55338 | -62.22650 | 23958 ft | 327 kts | 274° |
| 2026-05-09 01:27 | 10.55571 | -62.24946 | 23956 ft | 326 kts | 274° |
| 2026-05-09 01:27 | 10.55812 | -62.27241 | 23959 ft | 327 kts | 274° |
| 2026-05-09 01:28 | 10.56044 | -62.29536 | 23952 ft | 327 kts | 274° |
| 2026-05-09 01:28 | 10.56283 | -62.31833 | 23958 ft | 327 kts | 274° |
| 2026-05-09 01:28 | 10.56517 | -62.34132 | 23959 ft | 327 kts | 274° |
| 2026-05-09 01:28 | 10.56753 | -62.36427 | 23949 ft | 327 kts | 274° |
| 2026-05-09 01:29 | 10.56989 | -62.38728 | 23958 ft | 327 kts | 274° |
| 2026-05-09 01:29 | 10.57221 | -62.41000 | 23955 ft | 327 kts | 274° |
| 2026-05-09 01:29 | 10.57460 | -62.43302 | 23959 ft | 328 kts | 274° |
| 2026-05-09 01:29 | 10.57690 | -62.45607 | 23958 ft | 328 kts | 274° |
| 2026-05-09 01:30 | 10.57930 | -62.47914 | 23958 ft | 329 kts | 274° |
| 2026-05-09 01:30 | 10.58165 | -62.50225 | 23953 ft | 329 kts | 274° |
| 2026-05-09 01:30 | 10.58398 | -62.52536 | 23953 ft | 328 kts | 274° |
| 2026-05-09 01:30 | 10.58639 | -62.54847 | 23958 ft | 329 kts | 274° |
| 2026-05-09 01:31 | 10.58872 | -62.57160 | 23958 ft | 329 kts | 274° |
| 2026-05-09 01:31 | 10.59106 | -62.59439 | 23959 ft | 329 kts | 274° |
| 2026-05-09 01:31 | 10.59339 | -62.61756 | 23959 ft | 330 kts | 274° |
| 2026-05-09 01:31 | 10.59578 | -62.64075 | 23952 ft | 330 kts | 274° |
| 2026-05-09 01:32 | 10.59814 | -62.66396 | 23955 ft | 330 kts | 274° |
| 2026-05-09 01:32 | 10.60046 | -62.68718 | 23956 ft | 330 kts | 274° |
| 2026-05-09 01:32 | 10.60284 | -62.71041 | 23955 ft | 330 kts | 274° |
| 2026-05-09 01:32 | 10.60523 | -62.73365 | 23959 ft | 330 kts | 274° |
| 2026-05-09 01:33 | 10.60758 | -62.75689 | 23955 ft | 331 kts | 274° |
| 2026-05-09 01:33 | 10.60985 | -62.77984 | 23957 ft | 331 kts | 274° |
| 2026-05-09 01:33 | 10.61221 | -62.80313 | 23953 ft | 331 kts | 274° |
| 2026-05-09 01:33 | 10.61461 | -62.82640 | 23953 ft | 332 kts | 275° |
| 2026-05-09 01:34 | 10.61695 | -62.84977 | 23956 ft | 332 kts | 274° |
| 2026-05-09 01:34 | 10.61931 | -62.87315 | 23955 ft | 333 kts | 274° |
| 2026-05-09 01:34 | 10.62165 | -62.89655 | 23953 ft | 333 kts | 274° |
| 2026-05-09 01:34 | 10.62405 | -62.91995 | 23957 ft | 333 kts | 274° |
| 2026-05-09 01:35 | 10.62640 | -62.94338 | 23955 ft | 333 kts | 274° |
| 2026-05-09 01:35 | 10.62870 | -62.96652 | 23956 ft | 333 kts | 274° |
| 2026-05-09 01:35 | 10.63110 | -62.98997 | 23956 ft | 334 kts | 275° |
| 2026-05-09 01:35 | 10.63342 | -63.01343 | 23961 ft | 334 kts | 274° |
| 2026-05-09 01:36 | 10.63580 | -63.03686 | 23956 ft | 334 kts | 275° |
| 2026-05-09 01:36 | 10.63817 | -63.06034 | 23962 ft | 334 kts | 275° |
| 2026-05-09 01:36 | 10.64051 | -63.08385 | 23955 ft | 334 kts | 274° |
| 2026-05-09 01:36 | 10.64286 | -63.10738 | 23961 ft | 335 kts | 275° |
| 2026-05-09 01:37 | 10.64522 | -63.13093 | 23958 ft | 335 kts | 274° |
| 2026-05-09 01:37 | 10.64753 | -63.15418 | 23952 ft | 335 kts | 275° |
| 2026-05-09 01:37 | 10.64994 | -63.17780 | 23846 ft | 338 kts | 274° |
| 2026-05-09 01:37 | 10.65229 | -63.20197 | 23415 ft | 349 kts | 275° |
| 2026-05-09 01:38 | 10.65480 | -63.22689 | 22944 ft | 359 kts | 275° |
| 2026-05-09 01:38 | 10.65736 | -63.25246 | 22458 ft | 368 kts | 275° |
| 2026-05-09 01:38 | 10.65939 | -63.27859 | 21958 ft | 374 kts | 273° |
| 2026-05-09 01:38 | 10.66106 | -63.30508 | 21460 ft | 379 kts | 274° |
| 2026-05-09 01:39 | 10.66305 | -63.33191 | 20954 ft | 382 kts | 274° |
| 2026-05-09 01:39 | 10.66499 | -63.35898 | 20442 ft | 385 kts | 274° |
| 2026-05-09 01:39 | 10.66680 | -63.38585 | 19938 ft | 387 kts | 274° |
| 2026-05-09 01:39 | 10.66869 | -63.41320 | 19420 ft | 389 kts | 274° |
| 2026-05-09 01:40 | 10.67053 | -63.44065 | 18905 ft | 390 kts | 275° |
| 2026-05-09 01:40 | 10.67244 | -63.46811 | 18387 ft | 389 kts | 275° |
| 2026-05-09 01:40 | 10.67437 | -63.49556 | 17874 ft | 389 kts | 275° |
| 2026-05-09 01:40 | 10.67624 | -63.52304 | 17353 ft | 390 kts | 275° |
| 2026-05-09 01:41 | 10.67805 | -63.55016 | 16844 ft | 390 kts | 275° |
| 2026-05-09 01:41 | 10.67994 | -63.57763 | 16316 ft | 390 kts | 275° |
| 2026-05-09 01:41 | 10.68184 | -63.60503 | 15800 ft | 389 kts | 275° |
| 2026-05-09 01:41 | 10.68367 | -63.63247 | 15282 ft | 389 kts | 275° |
| 2026-05-09 01:42 | 10.68551 | -63.65945 | 14775 ft | 369 kts | 275° |
| 2026-05-09 01:42 | 10.68723 | -63.68445 | 14303 ft | 341 kts | 275° |
| 2026-05-09 01:42 | 10.68878 | -63.70772 | 13865 ft | 319 kts | 275° |
| 2026-05-09 01:42 | 10.69030 | -63.72958 | 13451 ft | 301 kts | 275° |
| 2026-05-09 01:43 | 10.69163 | -63.75029 | 13062 ft | 287 kts | 276° |
| 2026-05-09 01:43 | 10.69307 | -63.77008 | 12696 ft | 283 kts | 276° |
| 2026-05-09 01:43 | 10.69440 | -63.79000 | 12322 ft | 282 kts | 275° |
| 2026-05-09 01:43 | 10.69571 | -63.80984 | 11953 ft | 281 kts | 276° |
| 2026-05-09 01:44 | 10.69706 | -63.82957 | 11581 ft | 280 kts | 276° |
| 2026-05-09 01:44 | 10.69841 | -63.84927 | 11201 ft | 279 kts | 275° |
| 2026-05-09 01:44 | 10.69970 | -63.86889 | 10836 ft | 278 kts | 275° |
| 2026-05-09 01:44 | 10.70104 | -63.88845 | 10467 ft | 277 kts | 275° |
| 2026-05-09 01:45 | 10.70234 | -63.90796 | 10100 ft | 276 kts | 274° |
| 2026-05-09 01:45 | 10.70362 | -63.92713 | 9738 ft | 275 kts | 274° |
| 2026-05-09 01:45 | 10.70492 | -63.94650 | 9381 ft | 274 kts | 274° |
| 2026-05-09 01:45 | 10.70621 | -63.96574 | 9068 ft | 272 kts | 274° |
| 2026-05-09 01:46 | 10.70754 | -63.98497 | 8720 ft | 273 kts | 274° |
| 2026-05-09 01:46 | 10.70879 | -64.00431 | 8358 ft | 275 kts | 274° |
| 2026-05-09 01:46 | 10.71016 | -64.02376 | 7992 ft | 276 kts | 275° |
| 2026-05-09 01:46 | 10.71511 | -64.04238 | 7619 ft | 275 kts | 295° |
| 2026-05-09 01:47 | 10.72344 | -64.05983 | 7260 ft | 274 kts | 297° |
| 2026-05-09 01:47 | 10.73329 | -64.07641 | 6899 ft | 274 kts | 305° |
| 2026-05-09 01:47 | 10.74422 | -64.09202 | 6538 ft | 275 kts | 309° |
| 2026-05-09 01:47 | 10.75681 | -64.10659 | 6174 ft | 274 kts | 315° |
| 2026-05-09 01:48 | 10.77041 | -64.12009 | 5809 ft | 273 kts | 320° |
| 2026-05-09 01:48 | 10.78514 | -64.13220 | 5445 ft | 272 kts | 324° |
| 2026-05-09 01:48 | 10.80080 | -64.14292 | 5083 ft | 271 kts | 331° |
| 2026-05-09 01:48 | 10.81717 | -64.15224 | 4723 ft | 269 kts | 336° |
| 2026-05-09 01:49 | 10.83426 | -64.15994 | 4358 ft | 268 kts | 340° |
| 2026-05-09 01:49 | 10.85163 | -64.16506 | 4000 ft | 260 kts | 358° |
| 2026-05-09 01:49 | 10.86842 | -64.16017 | 3655 ft | 252 kts | 36° |
| 2026-05-09 01:49 | 10.87820 | -64.14630 | 3347 ft | 236 kts | 72° |
| 2026-05-09 01:50 | 10.88028 | -64.13036 | 3079 ft | 219 kts | 81° |
| 2026-05-09 01:50 | 10.88257 | -64.11555 | 2795 ft | 206 kts | 77° |
| 2026-05-09 01:50 | 10.88507 | -64.10176 | 2585 ft | 186 kts | 78° |
| 2026-05-09 01:50 | 10.88772 | -64.08929 | 2350 ft | 176 kts | 76° |
| 2026-05-09 01:51 | 10.89015 | -64.07731 | 2105 ft | 170 kts | 78° |
| 2026-05-09 01:51 | 10.89234 | -64.06588 | 1871 ft | 165 kts | 76° |
| 2026-05-09 01:51 | 10.89465 | -64.05556 | 1668 ft | 133 kts | 77° |
| 2026-05-09 01:51 | 10.89617 | -64.04701 | 1480 ft | 115 kts | 77° |
| 2026-05-09 01:52 | 10.89794 | -64.03933 | 1322 ft | 109 kts | 76° |
| 2026-05-09 01:52 | 10.89925 | -64.03184 | 1171 ft | 106 kts | 78° |
| 2026-05-09 01:52 | 10.90097 | -64.02465 | 1024 ft | 104 kts | 73° |
| 2026-05-09 01:52 | 10.90219 | -64.01743 | 879 ft | 104 kts | 81° |
| 2026-05-09 01:53 | 10.90375 | -64.01038 | 736 ft | 104 kts | 73° |
| 2026-05-09 01:53 | 10.90518 | -64.00315 | 591 ft | 105 kts | 81° |
| 2026-05-09 01:53 | 10.90664 | -63.99594 | 439 ft | 104 kts | 73° |
| 2026-05-09 01:53 | 10.90820 | -63.98873 | 305 ft | 104 kts | 79° |
| 2026-05-09 01:54 | 10.90961 | -63.98141 | 128 ft | 105 kts | 79° |
| 2026-05-09 01:54 | 10.91100 | -63.97452 | 65 ft | 87 kts | 78° |
| 2026-05-09 01:54 | 10.91168 | -63.97137 | 62 ft | 17 kts | 62° |
| 2026-05-09 01:54 | 10.91247 | -63.97130 | 59 ft | 13 kts | 348° |
| 2026-05-09 01:55 | 10.91339 | -63.97155 | 57 ft | 15 kts | 340° |
| 2026-05-09 01:55 | 10.91415 | -63.97165 | 56 ft | 11 kts | 41° |
| 2026-05-09 01:55 | 10.91451 | -63.97145 | 53 ft | 2 kts | 77° |
| 2026-05-09 01:55 | 10.91451 | -63.97143 | 53 ft | 0 kts | 75° |